Time;durP1;ratioP1;P1;durP2;ratioP2;P2;SDS_P1;SDS_P2;PMS_P1;PMS_P2;Temp;Humidity;BMP_temperature;BMP_pressure;BME280_temperature;BME280_humidity;BME280_pressure;Samples;Min_cycle;Max_cycle;Signal;HPM_P1;HPM_P2
2021/10/03 00:00:20;;;;;;;10.15;7.78;;;;;;;;;;4901940;29;20490;-79
2021/10/03 00:02:49;;;;;;;13.05;7.75;;;;;;;;;;4901809;29;20067;-79
2021/10/03 00:05:16;;;;;;;11.27;8.77;;;;;;;;;;4918398;29;20036;-79
2021/10/03 00:07:46;;;;;;;9.55;6.85;;;;;;;;;;4918201;29;20075;-79
2021/10/03 00:10:12;;;;;;;10.13;6.78;;;;;;;;;;4918429;29;20071;-79
2021/10/03 00:12:48;;;;;;;10.73;6.32;;;;;;;;;;4919061;29;21016;-80
2021/10/03 00:15:17;;;;;;;11.10;9.20;;;;;;;;;;4901290;29;20091;-79
2021/10/03 00:17:43;;;;;;;10.65;9.57;;;;;;;;;;4918373;29;20028;-80
2021/10/03 00:20:11;;;;;;;11.60;9.25;;;;;;;;;;4918875;29;20051;-79
2021/10/03 00:22:38;;;;;;;10.10;9.07;;;;;;;;;;4917976;29;20040;-80
2021/10/03 00:25:05;;;;;;;10.27;6.95;;;;;;;;;;4901046;29;20039;-80
2021/10/03 00:27:31;;;;;;;10.35;9.32;;;;;;;;;;4918389;29;20163;-80
2021/10/03 00:29:56;;;;;;;13.65;7.47;;;;;;;;;;4917824;29;20130;-81
2021/10/03 00:32:22;;;;;;;12.43;10.30;;;;;;;;;;4901003;29;20036;-79
2021/10/03 00:34:47;;;;;;;10.32;7.72;;;;;;;;;;4901126;29;20036;-77
2021/10/03 00:37:13;;;;;;;12.75;7.05;;;;;;;;;;4917659;29;20072;-80
2021/10/03 00:39:39;;;;;;;13.98;7.95;;;;;;;;;;4917488;29;20048;-80
2021/10/03 00:42:04;;;;;;;10.40;6.68;;;;;;;;;;4917340;29;20028;-80
2021/10/03 00:44:30;;;;;;;11.02;9.93;;;;;;;;;;4918006;29;20083;-79
2021/10/03 00:46:56;;;;;;;12.73;7.65;;;;;;;;;;4917456;29;20524;-80
2021/10/03 00:49:21;;;;;;;10.88;6.95;;;;;;;;;;4917219;29;20111;-79
2021/10/03 00:51:47;;;;;;;11.38;10.25;;;;;;;;;;4917577;29;20517;-78
2021/10/03 00:54:12;;;;;;;11.75;7.43;;;;;;;;;;4917262;29;20111;-82
2021/10/03 00:56:39;;;;;;;13.65;6.85;;;;;;;;;;4916898;29;20503;-79
2021/10/03 00:59:05;;;;;;;13.40;7.40;;;;;;;;;;4917249;29;20052;-79
2021/10/03 01:01:31;;;;;;;11.32;8.82;;;;;;;;;;4917614;29;20043;-79
2021/10/03 01:03:56;;;;;;;9.40;7.57;;;;;;;;;;4917591;29;20036;-79
2021/10/03 01:06:22;;;;;;;13.95;9.15;;;;;;;;;;4917229;29;20123;-79
2021/10/03 01:08:48;;;;;;;10.48;6.65;;;;;;;;;;4917694;29;20122;-79
2021/10/03 01:11:13;;;;;;;13.00;10.32;;;;;;;;;;4917790;29;20040;-78
2021/10/03 01:13:39;;;;;;;9.75;6.57;;;;;;;;;;4917607;29;20044;-80
2021/10/03 01:16:06;;;;;;;11.88;10.68;;;;;;;;;;4900441;29;20422;-81
2021/10/03 01:18:33;;;;;;;12.43;10.88;;;;;;;;;;4917919;29;20067;-80
2021/10/03 01:21:04;;;;;;;9.30;6.82;;;;;;;;;;4917264;29;20044;-79
2021/10/03 01:23:29;;;;;;;9.98;6.43;;;;;;;;;;4917024;29;20040;-79
2021/10/03 01:25:54;;;;;;;10.18;7.93;;;;;;;;;;4920305;29;20383;-78
2021/10/03 01:28:20;;;;;;;10.15;6.88;;;;;;;;;;4922825;29;20055;-79
2021/10/03 01:30:51;;;;;;;8.73;6.38;;;;;;;;;;4921697;29;20039;-80
2021/10/03 01:33:17;;;;;;;9.95;7.05;;;;;;;;;;4923562;29;20450;-81
2021/10/03 01:35:44;;;;;;;8.50;6.10;;;;;;;;;;4923356;29;20091;-78
2021/10/03 01:38:11;;;;;;;9.82;6.15;;;;;;;;;;4923280;29;20090;-80
2021/10/03 01:40:37;;;;;;;9.00;5.95;;;;;;;;;;4923639;29;20127;-79
2021/10/03 01:43:03;;;;;;;10.38;6.65;;;;;;;;;;4923071;29;20461;-79
2021/10/03 01:45:30;;;;;;;10.27;7.05;;;;;;;;;;4903696;29;20032;-80
2021/10/03 01:48:07;;;;;;;8.93;5.78;;;;;;;;;;4918543;29;20115;-78
2021/10/03 01:50:45;;;;;;;13.63;9.93;;;;;;;;;;4917670;29;20036;-78
2021/10/03 01:53:14;;;;;;;11.40;9.45;;;;;;;;;;4916454;29;20046;-82
2021/10/03 01:55:39;;;;;;;10.25;6.35;;;;;;;;;;4899669;29;20134;-79
2021/10/03 01:58:07;;;;;;;9.63;7.10;;;;;;;;;;4916170;29;20140;-79
2021/10/03 02:00:32;;;;;;;9.52;6.78;;;;;;;;;;4899525;29;20477;-78
2021/10/03 02:03:01;;;;;;;12.82;7.80;;;;;;;;;;4916460;29;20118;-80
2021/10/03 02:05:27;;;;;;;8.85;6.88;;;;;;;;;;4917387;29;20052;-78
2021/10/03 02:07:53;;;;;;;11.95;7.80;;;;;;;;;;4916252;29;20425;-79
2021/10/03 02:10:19;;;;;;;10.95;7.20;;;;;;;;;;4916091;29;20131;-79
2021/10/03 02:12:47;;;;;;;11.02;7.78;;;;;;;;;;4916677;29;20132;-81
2021/10/03 02:15:13;;;;;;;11.75;8.15;;;;;;;;;;4917006;29;20091;-79
2021/10/03 02:17:38;;;;;;;10.73;7.32;;;;;;;;;;4916201;29;20048;-79
2021/10/03 02:20:05;;;;;;;11.35;8.32;;;;;;;;;;4916004;29;20040;-79
2021/10/03 02:22:31;;;;;;;10.82;6.07;;;;;;;;;;4916277;29;20043;-79
2021/10/03 02:24:56;;;;;;;12.07;7.50;;;;;;;;;;4916558;29;20520;-78
2021/10/03 02:27:24;;;;;;;11.82;9.18;;;;;;;;;;4898927;29;20138;-79
2021/10/03 02:29:50;;;;;;;10.43;7.35;;;;;;;;;;4899033;29;20055;-79
2021/10/03 02:32:16;;;;;;;11.85;6.75;;;;;;;;;;4916649;29;20044;-78
2021/10/03 02:34:42;;;;;;;13.93;7.72;;;;;;;;;;4916481;29;20168;-80
2021/10/03 02:37:07;;;;;;;10.85;7.03;;;;;;;;;;4917137;29;20100;-80
2021/10/03 02:39:32;;;;;;;8.88;7.00;;;;;;;;;;4917124;29;20032;-80
2021/10/03 02:41:59;;;;;;;15.25;8.48;;;;;;;;;;4917916;29;20039;-81
2021/10/03 02:44:25;;;;;;;15.77;7.75;;;;;;;;;;4916129;29;20043;-81
2021/10/03 02:46:50;;;;;;;12.48;7.78;;;;;;;;;;4915505;29;20485;-80
2021/10/03 02:49:16;;;;;;;11.70;8.35;;;;;;;;;;4915663;29;20074;-81
2021/10/03 02:51:41;;;;;;;10.68;8.05;;;;;;;;;;4898482;29;20071;-79
2021/10/03 02:54:06;;;;;;;12.43;7.82;;;;;;;;;;4915811;29;20501;-80
2021/10/03 02:56:32;;;;;;;14.50;10.63;;;;;;;;;;4915786;29;20047;-80
2021/10/03 02:58:58;;;;;;;12.38;7.13;;;;;;;;;;4915677;29;20074;-80
2021/10/03 03:01:24;;;;;;;12.70;9.13;;;;;;;;;;4915657;29;20127;-81
2021/10/03 03:03:50;;;;;;;11.90;7.60;;;;;;;;;;4915911;29;20028;-80
2021/10/03 03:06:16;;;;;;;15.07;7.93;;;;;;;;;;4900412;29;20040;-78
2021/10/03 03:08:42;;;;;;;14.05;9.63;;;;;;;;;;4920204;29;20099;-79
2021/10/03 03:11:08;;;;;;;10.57;7.55;;;;;;;;;;4919738;29;20036;-80
2021/10/03 03:13:33;;;;;;;11.90;7.95;;;;;;;;;;4919776;29;20110;-79
2021/10/03 03:15:59;;;;;;;14.45;7.80;;;;;;;;;;4902650;29;20573;-79
2021/10/03 03:18:24;;;;;;;14.45;7.78;;;;;;;;;;4919388;29;20127;-79
2021/10/03 03:20:50;;;;;;;11.93;8.43;;;;;;;;;;4919040;29;20131;-79
2021/10/03 03:23:19;;;;;;;13.45;8.52;;;;;;;;;;4902436;29;20494;-79
2021/10/03 03:25:44;;;;;;;11.85;8.48;;;;;;;;;;4918960;29;20043;-79
2021/10/03 03:28:11;;;;;;;18.92;9.43;;;;;;;;;;4919114;29;20119;-79
2021/10/03 03:30:37;;;;;;;11.07;7.45;;;;;;;;;;4919671;29;20043;-79
2021/10/03 03:33:04;;;;;;;10.25;7.35;;;;;;;;;;4919528;29;20039;-79
2021/10/03 03:35:29;;;;;;;14.35;8.57;;;;;;;;;;4919083;29;20379;-80
2021/10/03 03:37:55;;;;;;;12.82;7.95;;;;;;;;;;4919604;29;20043;-80
2021/10/03 03:40:21;;;;;;;13.45;9.30;;;;;;;;;;4919652;29;20049;-79
2021/10/03 03:42:47;;;;;;;12.90;8.55;;;;;;;;;;4919104;29;20032;-79
2021/10/03 03:45:13;;;;;;;12.13;8.35;;;;;;;;;;4919755;29;20087;-80
2021/10/03 03:47:40;;;;;;;12.70;8.18;;;;;;;;;;4919755;29;20622;-79
2021/10/03 03:50:08;;;;;;;10.45;6.72;;;;;;;;;;4919696;29;20035;-80
2021/10/03 03:52:33;;;;;;;11.93;7.50;;;;;;;;;;4919581;29;20036;-79
2021/10/03 03:54:59;;;;;;;12.32;6.90;;;;;;;;;;4902521;29;20063;-79
2021/10/03 03:57:24;;;;;;;11.82;8.65;;;;;;;;;;4919084;29;20032;-77
2021/10/03 03:59:50;;;;;;;14.65;8.88;;;;;;;;;;4918956;29;20055;-80
2021/10/03 04:02:15;;;;;;;9.60;7.63;;;;;;;;;;4919170;29;20032;-80
2021/10/03 04:04:41;;;;;;;13.80;8.38;;;;;;;;;;4918614;29;20044;-79
2021/10/03 04:07:07;;;;;;;11.98;7.82;;;;;;;;;;4918180;29;20052;-79
2021/10/03 04:09:32;;;;;;;9.73;7.28;;;;;;;;;;4918438;29;20047;-79
2021/10/03 04:11:58;;;;;;;11.43;8.30;;;;;;;;;;4918247;29;20068;-79
2021/10/03 04:14:24;;;;;;;12.80;8.98;;;;;;;;;;4901666;29;20036;-78
2021/10/03 04:16:49;;;;;;;14.60;9.38;;;;;;;;;;4917530;29;20186;-77
2021/10/03 04:19:14;;;;;;;13.38;8.93;;;;;;;;;;4901502;29;20484;-81
2021/10/03 04:21:40;;;;;;;13.82;8.38;;;;;;;;;;4918336;29;20050;-80
2021/10/03 04:24:05;;;;;;;12.48;9.63;;;;;;;;;;4918269;29;20107;-80
2021/10/03 04:26:31;;;;;;;14.93;8.20;;;;;;;;;;4917725;29;20036;-79
2021/10/03 04:28:56;;;;;;;12.93;9.63;;;;;;;;;;4917552;29;20032;-80
2021/10/03 04:31:22;;;;;;;11.65;7.00;;;;;;;;;;4917829;29;20122;-80
2021/10/03 04:33:47;;;;;;;14.02;9.45;;;;;;;;;;4917880;29;20037;-79
2021/10/03 04:36:13;;;;;;;12.13;7.07;;;;;;;;;;4917608;29;20445;-78
2021/10/03 04:38:40;;;;;;;10.90;6.90;;;;;;;;;;4917849;29;20040;-79
2021/10/03 04:41:07;;;;;;;10.43;9.02;;;;;;;;;;4917479;29;20131;-81
2021/10/03 04:43:33;;;;;;;13.23;7.38;;;;;;;;;;4917383;29;20032;-79
2021/10/03 04:45:59;;;;;;;13.35;8.88;;;;;;;;;;4917221;29;20040;-80
2021/10/03 04:48:25;;;;;;;10.93;6.88;;;;;;;;;;4917641;29;20076;-79
2021/10/03 04:50:50;;;;;;;17.67;12.35;;;;;;;;;;4917753;29;20078;-79
2021/10/03 04:53:16;;;;;;;11.77;8.02;;;;;;;;;;4917392;29;20556;-82
2021/10/03 04:55:41;;;;;;;12.85;6.80;;;;;;;;;;4918416;29;20493;-79
2021/10/03 04:58:07;;;;;;;13.73;9.02;;;;;;;;;;4917880;29;20401;-79
2021/10/03 05:00:32;;;;;;;8.27;6.63;;;;;;;;;;4900974;29;20100;-81
2021/10/03 05:02:58;;;;;;;13.48;8.77;;;;;;;;;;4917996;29;20043;-79
2021/10/03 05:05:23;;;;;;;16.80;9.23;;;;;;;;;;4917988;29;20429;-80
2021/10/03 05:07:49;;;;;;;12.90;7.18;;;;;;;;;;4917423;29;20409;-79
2021/10/03 05:10:15;;;;;;;14.15;8.90;;;;;;;;;;4917420;29;20129;-79
2021/10/03 05:12:40;;;;;;;11.30;6.68;;;;;;;;;;4917208;29;20123;-80
2021/10/03 05:15:06;;;;;;;15.20;8.40;;;;;;;;;;4917549;29;20059;-79
2021/10/03 05:17:31;;;;;;;10.70;7.05;;;;;;;;;;4917386;29;20490;-80
2021/10/03 05:19:57;;;;;;;7.05;5.55;;;;;;;;;;4918991;29;20072;-80
2021/10/03 05:22:24;;;;;;;10.18;8.60;;;;;;;;;;4917416;29;20051;-79
2021/10/03 05:24:51;;;;;;;9.70;5.95;;;;;;;;;;4899530;29;20062;-81
2021/10/03 05:27:16;;;;;;;12.10;7.25;;;;;;;;;;4916825;29;20044;-80
2021/10/03 05:29:42;;;;;;;13.18;7.53;;;;;;;;;;4916277;29;20043;-80
2021/10/03 05:32:07;;;;;;;10.52;6.78;;;;;;;;;;4899272;29;20590;-79
2021/10/03 05:34:32;;;;;;;11.27;7.00;;;;;;;;;;4916044;29;20036;-81
2021/10/03 05:36:58;;;;;;;10.73;6.80;;;;;;;;;;4915758;29;20047;-79
2021/10/03 05:39:24;;;;;;;12.32;8.18;;;;;;;;;;4899060;29;20087;-81
2021/10/03 05:41:55;;;;;;;10.73;8.23;;;;;;;;;;4915641;29;20505;-81
2021/10/03 05:44:21;;;;;;;13.00;7.53;;;;;;;;;;4915713;29;20075;-80
2021/10/03 05:46:46;;;;;;;16.33;9.65;;;;;;;;;;4916053;29;20499;-82
2021/10/03 05:49:13;;;;;;;9.15;7.13;;;;;;;;;;4916054;29;20119;-78
2021/10/03 05:51:40;;;;;;;8.85;7.18;;;;;;;;;;4899106;29;20040;-80
2021/10/03 05:54:05;;;;;;;13.57;9.25;;;;;;;;;;4915870;29;20032;-78
2021/10/03 05:56:31;;;;;;;10.95;7.18;;;;;;;;;;4916246;29;20062;-81
2021/10/03 05:58:59;;;;;;;13.07;7.25;;;;;;;;;;4916078;29;20036;-80
2021/10/03 06:01:28;;;;;;;9.10;7.63;;;;;;;;;;4915711;29;20043;-82
2021/10/03 06:03:56;;;;;;;12.55;7.82;;;;;;;;;;4914338;29;20043;-80
2021/10/03 06:06:22;;;;;;;11.52;6.68;;;;;;;;;;4898581;29;20110;-79
2021/10/03 06:08:48;;;;;;;9.20;6.10;;;;;;;;;;4915920;29;20498;-80
2021/10/03 06:11:13;;;;;;;10.32;8.02;;;;;;;;;;4916054;29;20040;-81
2021/10/03 06:13:40;;;;;;;10.95;8.35;;;;;;;;;;4916078;29;20035;-80
2021/10/03 06:16:06;;;;;;;11.50;8.00;;;;;;;;;;4897908;29;20048;-81
2021/10/03 06:18:32;;;;;;;9.27;8.38;;;;;;;;;;4915559;29;20040;-80
2021/10/03 06:20:57;;;;;;;9.00;6.15;;;;;;;;;;4915552;29;20036;-79
2021/10/03 06:23:23;;;;;;;7.00;4.75;;;;;;;;;;4916521;29;20042;-80
2021/10/03 06:25:48;;;;;;;11.80;7.90;;;;;;;;;;4915812;29;20063;-80
2021/10/03 06:28:14;;;;;;;9.45;6.40;;;;;;;;;;4915780;29;20036;-80
2021/10/03 06:30:39;;;;;;;9.65;7.32;;;;;;;;;;4915851;29;20036;-80
2021/10/03 06:33:05;;;;;;;12.05;8.35;;;;;;;;;;4915475;29;20028;-79
2021/10/03 06:35:30;;;;;;;8.23;5.40;;;;;;;;;;4915444;29;20127;-83
2021/10/03 06:37:57;;;;;;;9.63;8.32;;;;;;;;;;4915425;29;20032;-80
2021/10/03 06:40:22;;;;;;;13.40;6.60;;;;;;;;;;4898215;29;20059;-81
2021/10/03 06:42:48;;;;;;;7.68;6.88;;;;;;;;;;4915440;29;20028;-80
2021/10/03 06:45:14;;;;;;;9.05;6.18;;;;;;;;;;4915561;29;20666;-83
2021/10/03 06:47:39;;;;;;;10.98;6.80;;;;;;;;;;4915556;29;20169;-82
2021/10/03 06:50:06;;;;;;;10.07;8.70;;;;;;;;;;4898418;29;20051;-83
2021/10/03 06:52:32;;;;;;;9.13;6.50;;;;;;;;;;4915009;29;20405;-80
2021/10/03 06:54:58;;;;;;;9.55;7.28;;;;;;;;;;4915165;29;20043;-79
2021/10/03 06:57:23;;;;;;;8.73;5.40;;;;;;;;;;4915249;29;20032;-81
2021/10/03 06:59:49;;;;;;;8.85;5.90;;;;;;;;;;4915346;29;20036;-81
2021/10/03 07:02:23;;;;;;;12.77;7.97;;;;;;;;;;4909289;29;20043;-80
2021/10/03 07:04:49;;;;;;;11.52;8.18;;;;;;;;;;4915052;29;20175;-80
2021/10/03 07:07:15;;;;;;;9.05;5.40;;;;;;;;;;4915402;29;20127;-82
2021/10/03 07:09:46;;;;;;;7.40;5.72;;;;;;;;;;4897523;29;20501;-81
2021/10/03 07:12:12;;;;;;;10.57;6.50;;;;;;;;;;4914840;29;20107;-81
2021/10/03 07:14:38;;;;;;;12.20;7.28;;;;;;;;;;4916063;29;20047;-81
2021/10/03 07:17:05;;;;;;;14.60;6.30;;;;;;;;;;4914858;29;20062;-80
2021/10/03 07:19:30;;;;;;;7.38;6.00;;;;;;;;;;4915374;29;20071;-83
2021/10/03 07:21:56;;;;;;;12.18;6.95;;;;;;;;;;4914856;29;20064;-81
2021/10/03 07:24:27;;;;;;;8.32;5.07;;;;;;;;;;4897897;29;20044;-81
2021/10/03 07:26:53;;;;;;;8.40;6.32;;;;;;;;;;4915407;29;20593;-80
2021/10/03 07:29:20;;;;;;;10.02;6.35;;;;;;;;;;4914971;29;20132;-81
2021/10/03 07:31:45;;;;;;;9.63;6.95;;;;;;;;;;4914696;29;20067;-80
2021/10/03 07:34:11;;;;;;;10.30;5.85;;;;;;;;;;4915361;29;20070;-80
2021/10/03 07:36:37;;;;;;;13.18;8.05;;;;;;;;;;4914314;29;20472;-81
2021/10/03 07:39:03;;;;;;;9.50;7.55;;;;;;;;;;4914807;29;20036;-81
2021/10/03 07:41:30;;;;;;;7.97;6.15;;;;;;;;;;4915395;29;20128;-81
2021/10/03 07:43:55;;;;;;;8.88;5.93;;;;;;;;;;4913813;29;20075;-81
2021/10/03 07:46:21;;;;;;;8.98;6.63;;;;;;;;;;4918502;23;20129;-81
2021/10/03 07:48:47;;;;;;;9.52;5.32;;;;;;;;;;4876978;29;20033;-80
2021/10/03 07:51:13;;;;;;;9.30;5.60;;;;;;;;;;4876439;29;20124;-80
2021/10/03 07:53:39;;;;;;;10.30;9.25;;;;;;;;;;4879931;29;20463;-80
2021/10/03 07:56:05;;;;;;;10.07;8.10;;;;;;;;;;4880762;29;20037;-79
2021/10/03 07:58:30;;;;;;;8.85;4.60;;;;;;;;;;4880571;29;20092;-80
2021/10/03 08:00:57;;;;;;;8.15;5.20;;;;;;;;;;4862362;29;20049;-81
2021/10/03 08:03:24;;;;;;;4.82;4.13;;;;;;;;;;4880280;29;20033;-80
2021/10/03 08:05:49;;;;;;;8.25;5.53;;;;;;;;;;4880071;29;20037;-80
2021/10/03 08:08:15;;;;;;;10.85;8.30;;;;;;;;;;4880408;29;20411;-79
2021/10/03 08:10:41;;;;;;;9.15;5.32;;;;;;;;;;4880143;29;20100;-82
2021/10/03 08:13:08;;;;;;;9.52;5.03;;;;;;;;;;4880401;29;20036;-81
2021/10/03 08:15:35;;;;;;;9.60;5.95;;;;;;;;;;4880610;29;20037;-81
2021/10/03 08:18:01;;;;;;;7.47;5.50;;;;;;;;;;4882076;29;20064;-81
2021/10/03 08:20:27;;;;;;;8.90;5.18;;;;;;;;;;4880816;29;20043;-81
2021/10/03 08:22:54;;;;;;;7.53;5.13;;;;;;;;;;4880397;29;20033;-83
2021/10/03 08:25:19;;;;;;;7.40;5.10;;;;;;;;;;4864192;29;20513;-81
2021/10/03 08:27:45;;;;;;;9.40;4.82;;;;;;;;;;4880458;29;20037;-80
2021/10/03 08:30:11;;;;;;;8.68;5.80;;;;;;;;;;4880423;29;20185;-80
2021/10/03 08:32:43;;;;;;;8.43;6.25;;;;;;;;;;4863792;29;20387;-83
2021/10/03 08:35:09;;;;;;;8.63;5.90;;;;;;;;;;4880684;29;20056;-82
2021/10/03 08:37:36;;;;;;;10.13;5.18;;;;;;;;;;4881436;29;20452;-80
2021/10/03 08:40:03;;;;;;;8.63;5.45;;;;;;;;;;4881899;29;20045;-81
2021/10/03 08:42:28;;;;;;;8.63;4.82;;;;;;;;;;4882008;29;20124;-83
2021/10/03 08:44:54;;;;;;;5.10;4.38;;;;;;;;;;4882951;29;20061;-81
2021/10/03 08:47:22;;;;;;;8.63;5.50;;;;;;;;;;4894878;29;20056;-83
2021/10/03 08:49:47;;;;;;;9.77;6.30;;;;;;;;;;4900139;29;20032;-82
2021/10/03 08:52:12;;;;;;;10.40;5.18;;;;;;;;;;4898826;29;20045;-82
2021/10/03 08:54:40;;;;;;;8.38;6.78;;;;;;;;;;4897733;29;20391;-71
2021/10/03 08:57:06;;;;;;;8.32;5.10;;;;;;;;;;4898452;29;20047;-79
2021/10/03 08:59:32;;;;;;;8.00;5.47;;;;;;;;;;4898423;29;20052;-80
2021/10/03 09:01:58;;;;;;;8.05;5.30;;;;;;;;;;4898238;29;20418;-80
2021/10/03 09:04:36;;;;;;;6.03;5.00;;;;;;;;;;4901196;29;20037;-80
2021/10/03 09:07:14;;;;;;;7.60;5.20;;;;;;;;;;4898235;29;20040;-79
2021/10/03 09:10:00;;;;;;;6.60;4.30;;;;;;;;;;4881857;29;20028;-80
2021/10/03 09:12:34;;;;;;;3.95;3.50;;;;;;;;;;4898807;29;20037;-84
2021/10/03 09:15:03;;;;;;;7.30;3.70;;;;;;;;;;4899002;29;20040;-79
2021/10/03 09:17:30;;;;;;;6.82;4.00;;;;;;;;;;4899559;29;20036;-81
2021/10/03 09:20:21;;;;;;;7.13;4.72;;;;;;;;;;4881683;29;20075;-78
2021/10/03 09:23:09;;;;;;;7.03;4.03;;;;;;;;;;4898056;29;20040;-80
2021/10/03 09:25:49;;;;;;;3.63;3.00;;;;;;;;;;4880488;29;20410;-81
2021/10/03 09:28:34;;;;;;;4.63;2.80;;;;;;;;;;4897818;29;20085;-79
2021/10/03 09:31:17;;;;;;;4.50;3.75;;;;;;;;;;4881019;29;20375;-80
2021/10/03 09:33:56;;;;;;;4.55;2.75;;;;;;;;;;4882161;29;20499;-81
2021/10/03 09:36:43;;;;;;;5.20;3.80;;;;;;;;;;4881080;29;20067;-80
2021/10/03 09:39:09;;;;;;;8.73;4.10;;;;;;;;;;4897778;29;20044;-81
2021/10/03 09:41:45;;;;;;;3.70;3.10;;;;;;;;;;4897262;29;20085;-81
2021/10/03 09:44:16;;;;;;;4.40;3.63;;;;;;;;;;4880502;29;20104;-79
2021/10/03 09:46:49;;;;;;;4.20;3.42;;;;;;;;;;4897548;29;20065;-81
2021/10/03 09:49:18;;;;;;;4.85;2.92;;;;;;;;;;4880243;29;20132;-79
2021/10/03 09:51:49;;;;;;;3.70;3.08;;;;;;;;;;4897175;29;20039;-80
2021/10/03 09:54:17;;;;;;;5.53;3.13;;;;;;;;;;4897558;29;20051;-82
2021/10/03 09:56:46;;;;;;;5.60;3.15;;;;;;;;;;4880444;29;20156;-79
2021/10/03 09:59:12;;;;;;;8.65;3.70;;;;;;;;;;4896082;29;20044;-79
2021/10/03 10:01:46;;;;;;;3.05;2.65;;;;;;;;;;4896149;29;20064;-81
2021/10/03 10:04:16;;;;;;;3.42;2.50;;;;;;;;;;4897735;29;20048;-79
2021/10/03 10:06:45;;;;;;;3.28;2.67;;;;;;;;;;4880082;29;20460;-79
2021/10/03 10:09:16;;;;;;;3.80;2.42;;;;;;;;;;4897031;29;20048;-80
2021/10/03 10:12:09;;;;;;;5.22;3.88;;;;;;;;;;4879936;29;20370;-79
2021/10/03 10:14:40;;;;;;;4.30;3.10;;;;;;;;;;4896404;29;20044;-78
2021/10/03 10:17:40;;;;;;;6.32;3.78;;;;;;;;;;4895468;29;20048;-78
2021/10/03 10:20:18;;;;;;;3.17;2.88;;;;;;;;;;4896663;29;20104;-78
2021/10/03 10:23:10;;;;;;;5.05;3.42;;;;;;;;;;4896537;29;20041;-79
2021/10/03 10:25:38;;;;;;;2.95;2.65;;;;;;;;;;4896374;29;20036;-78
2021/10/03 10:28:07;;;;;;;5.15;3.45;;;;;;;;;;4895144;29;20036;-80
2021/10/03 10:31:03;;;;;;;4.63;3.03;;;;;;;;;;4879536;29;20040;-79
2021/10/03 10:33:47;;;;;;;4.78;3.03;;;;;;;;;;4896440;29;20127;-81
2021/10/03 10:36:29;;;;;;;3.50;2.88;;;;;;;;;;4896508;29;20043;-79
2021/10/03 10:39:14;;;;;;;5.05;3.08;;;;;;;;;;4896334;29;20044;-79
2021/10/03 10:41:39;;;;;;;6.97;2.97;;;;;;;;;;4896564;29;20043;-80
2021/10/03 10:44:26;;;;;;;4.35;2.45;;;;;;;;;;4896107;29;20123;-81
2021/10/03 10:46:59;;;;;;;3.75;2.97;;;;;;;;;;4896002;29;20553;-81
2021/10/03 10:49:36;;;;;;;7.78;3.60;;;;;;;;;;4896592;29;20123;-79
2021/10/03 10:52:22;;;;;;;4.47;2.88;;;;;;;;;;4896503;29;20176;-79
2021/10/03 10:55:06;;;;;;;3.85;3.00;;;;;;;;;;4875716;29;20045;-80
2021/10/03 10:57:33;;;;;;;4.93;2.88;;;;;;;;;;4894593;29;20548;-79
2021/10/03 11:00:18;;;;;;;5.43;3.20;;;;;;;;;;4879867;29;20040;-78
2021/10/03 11:02:51;;;;;;;4.43;2.88;;;;;;;;;;4896236;29;20047;-81
2021/10/03 11:05:31;;;;;;;5.88;3.10;;;;;;;;;;4879846;29;20044;-80
2021/10/03 11:08:10;;;;;;;5.03;3.38;;;;;;;;;;4896262;29;20045;-80
2021/10/03 11:11:00;;;;;;;5.88;3.40;;;;;;;;;;4896360;29;20044;-79
2021/10/03 11:13:38;;;;;;;5.05;2.95;;;;;;;;;;4879316;29;20043;-79
2021/10/03 11:16:23;;;;;;;4.75;2.92;;;;;;;;;;4895880;29;20044;-80
2021/10/03 11:19:06;;;;;;;8.25;3.40;;;;;;;;;;4895876;29;20040;-79
2021/10/03 11:21:41;;;;;;;5.78;2.78;;;;;;;;;;4895737;29;20052;-80
2021/10/03 11:24:09;;;;;;;5.75;3.22;;;;;;;;;;4895925;29;20040;-80
2021/10/03 11:26:57;;;;;;;4.32;2.70;;;;;;;;;;4896518;29;20045;-80
2021/10/03 11:29:28;;;;;;;3.47;2.85;;;;;;;;;;4884017;29;20032;-79
2021/10/03 11:32:07;;;;;;;2.78;2.33;;;;;;;;;;4899536;29;20047;-80
2021/10/03 11:34:53;;;;;;;6.78;2.92;;;;;;;;;;4899844;29;20041;-79
2021/10/03 11:37:52;;;;;;;4.78;2.88;;;;;;;;;;4899689;29;20530;-80
2021/10/03 11:40:23;;;;;;;5.00;3.22;;;;;;;;;;4888399;29;20052;-80
2021/10/03 11:42:52;;;;;;;5.78;3.60;;;;;;;;;;4899748;29;20525;-79
2021/10/03 11:45:21;;;;;;;4.10;3.40;;;;;;;;;;4899984;29;20058;-79
2021/10/03 11:48:03;;;;;;;4.00;3.17;;;;;;;;;;4899479;29;20064;-79
2021/10/03 11:50:45;;;;;;;5.85;3.20;;;;;;;;;;4882391;29;20101;-80
2021/10/03 11:53:18;;;;;;;6.82;3.90;;;;;;;;;;4898675;29;20087;-81
2021/10/03 11:55:46;;;;;;;5.03;3.10;;;;;;;;;;4899494;29;20104;-79
2021/10/03 11:58:14;;;;;;;6.68;3.65;;;;;;;;;;4882485;29;20123;-79
2021/10/03 12:01:02;;;;;;;4.60;2.85;;;;;;;;;;4882463;29;20029;-79
2021/10/03 12:03:36;;;;;;;5.43;3.47;;;;;;;;;;4899416;29;20044;-77
2021/10/03 12:06:30;;;;;;;4.28;3.42;;;;;;;;;;4899303;29;20070;-79
2021/10/03 12:08:56;;;;;;;4.47;3.50;;;;;;;;;;4896109;29;20040;-79
2021/10/03 12:11:23;;;;;;;5.28;3.55;;;;;;;;;;4899395;29;20089;-80
2021/10/03 12:14:00;;;;;;;4.30;3.10;;;;;;;;;;4899003;29;20033;-80
2021/10/03 12:16:26;;;;;;;5.18;3.08;;;;;;;;;;4898875;29;20073;-79
2021/10/03 12:19:04;;;;;;;14.00;4.65;;;;;;;;;;4882243;29;20045;-79
2021/10/03 12:21:34;;;;;;;11.90;5.07;;;;;;;;;;4898878;29;20063;-79
2021/10/03 12:24:00;;;;;;;10.48;5.53;;;;;;;;;;4882149;29;20490;-82
2021/10/03 12:26:55;;;;;;;6.85;4.20;;;;;;;;;;4897545;29;20036;-80
2021/10/03 12:29:25;;;;;;;4.93;3.72;;;;;;;;;;4897962;29;20048;-79
2021/10/03 12:32:05;;;;;;;5.43;3.20;;;;;;;;;;4898556;29;20072;-80
2021/10/03 12:34:38;;;;;;;5.28;4.75;;;;;;;;;;4898649;29;20447;-80
2021/10/03 12:37:10;;;;;;;7.82;3.80;;;;;;;;;;4866664;29;20529;-80
2021/10/03 12:39:51;;;;;;;7.28;3.58;;;;;;;;;;4881973;29;20101;-80
2021/10/03 12:42:22;;;;;;;4.10;3.55;;;;;;;;;;4898249;29;20417;-80
2021/10/03 12:44:50;;;;;;;6.68;4.35;;;;;;;;;;4880923;29;20040;-78
2021/10/03 12:47:20;;;;;;;6.57;4.22;;;;;;;;;;4898012;29;20074;-81
2021/10/03 12:49:48;;;;;;;7.55;4.97;;;;;;;;;;4897970;29;20077;-79
2021/10/03 12:52:16;;;;;;;6.10;4.13;;;;;;;;;;4898346;29;20028;-80
2021/10/03 12:54:44;;;;;;;12.60;6.57;;;;;;;;;;4897285;29;20631;-79
2021/10/03 12:57:11;;;;;;;6.25;4.43;;;;;;;;;;4897924;29;20048;-80
2021/10/03 12:59:37;;;;;;;7.00;4.13;;;;;;;;;;4897923;29;20051;-79
2021/10/03 13:02:03;;;;;;;5.90;4.35;;;;;;;;;;4898715;29;20045;-82
2021/10/03 13:04:30;;;;;;;6.82;3.97;;;;;;;;;;4898197;29;20036;-80
2021/10/03 13:06:56;;;;;;;8.40;4.57;;;;;;;;;;4898069;29;20123;-80
2021/10/03 13:09:24;;;;;;;5.03;3.40;;;;;;;;;;4897934;29;20044;-80
2021/10/03 13:11:50;;;;;;;4.95;3.38;;;;;;;;;;4898110;29;20040;-81
2021/10/03 13:14:15;;;;;;;5.55;4.10;;;;;;;;;;4898235;29;20028;-81
2021/10/03 13:16:41;;;;;;;5.65;5.15;;;;;;;;;;4881128;29;20379;-81
2021/10/03 13:19:06;;;;;;;6.38;4.05;;;;;;;;;;4897830;29;20067;-81
2021/10/03 13:21:32;;;;;;;6.38;4.70;;;;;;;;;;4897935;29;20124;-80
2021/10/03 13:23:59;;;;;;;5.60;5.03;;;;;;;;;;4897688;29;20410;-80
2021/10/03 13:26:25;;;;;;;8.43;4.72;;;;;;;;;;4897349;29;20465;-80
2021/10/03 13:28:50;;;;;;;7.10;4.95;;;;;;;;;;4897384;29;20036;-80
2021/10/03 13:31:16;;;;;;;9.77;4.03;;;;;;;;;;4897630;29;20044;-79
2021/10/03 13:33:43;;;;;;;5.70;3.47;;;;;;;;;;4897389;29;20097;-81
2021/10/03 13:36:11;;;;;;;6.53;4.03;;;;;;;;;;4898155;29;20096;-80
2021/10/03 13:38:36;;;;;;;6.85;4.13;;;;;;;;;;4897796;29;20044;-81
2021/10/03 13:41:02;;;;;;;5.32;3.20;;;;;;;;;;4897992;29;20135;-79
2021/10/03 13:43:32;;;;;;;7.25;3.60;;;;;;;;;;4897954;29;20144;-80
2021/10/03 13:45:58;;;;;;;4.75;3.13;;;;;;;;;;4895535;29;20040;-81
2021/10/03 13:48:24;;;;;;;5.00;3.80;;;;;;;;;;4897192;29;20036;-80
2021/10/03 13:50:50;;;;;;;6.43;3.78;;;;;;;;;;4896665;29;20039;-81
2021/10/03 13:53:17;;;;;;;5.68;4.65;;;;;;;;;;4897103;29;20402;-79
2021/10/03 13:55:44;;;;;;;5.93;3.65;;;;;;;;;;4897099;29;20048;-82
2021/10/03 13:58:12;;;;;;;8.13;3.58;;;;;;;;;;4895865;29;20123;-81
2021/10/03 14:00:37;;;;;;;4.65;3.13;;;;;;;;;;4897364;29;20116;-80
2021/10/03 14:03:03;;;;;;;4.45;3.70;;;;;;;;;;4897130;29;20410;-81
2021/10/03 14:05:33;;;;;;;3.75;2.83;;;;;;;;;;4897058;29;20036;-81
2021/10/03 14:07:58;;;;;;;8.65;4.35;;;;;;;;;;4896647;29;20043;-81
2021/10/03 14:10:24;;;;;;;6.20;3.22;;;;;;;;;;4880022;29;20044;-80
2021/10/03 14:12:49;;;;;;;7.40;4.13;;;;;;;;;;4896907;29;20047;-80
2021/10/03 14:15:15;;;;;;;6.10;3.58;;;;;;;;;;4896872;29;20169;-79
2021/10/03 14:17:42;;;;;;;4.22;2.85;;;;;;;;;;4879729;29;20077;-81
2021/10/03 14:20:09;;;;;;;5.75;4.20;;;;;;;;;;4896658;29;20077;-79
2021/10/03 14:22:35;;;;;;;6.40;3.55;;;;;;;;;;4896666;29;20029;-80
2021/10/03 14:25:01;;;;;;;5.90;4.85;;;;;;;;;;4896763;29;20422;-79
2021/10/03 14:27:26;;;;;;;5.20;3.33;;;;;;;;;;4899083;29;20045;-81
2021/10/03 14:29:52;;;;;;;5.50;3.67;;;;;;;;;;4896478;29;20044;-79
2021/10/03 14:32:17;;;;;;;4.88;3.42;;;;;;;;;;4896310;29;20040;-79
2021/10/03 14:34:43;;;;;;;6.10;4.05;;;;;;;;;;4896481;29;20037;-82
2021/10/03 14:37:08;;;;;;;7.00;3.13;;;;;;;;;;4897382;29;20036;-79
2021/10/03 14:39:34;;;;;;;7.60;4.38;;;;;;;;;;4898570;29;20044;-83
2021/10/03 14:42:00;;;;;;;8.00;4.40;;;;;;;;;;4898053;29;20094;-80
2021/10/03 14:44:25;;;;;;;5.93;3.92;;;;;;;;;;4898193;29;20028;-80
2021/10/03 14:46:51;;;;;;;8.70;4.88;;;;;;;;;;4898244;29;20127;-80